Rhonda Lamulle — WDC8441 — position and weather

sailwx.info

Track history (hours):
 
Tides and Currents Weather Stations Pressure Air Temp Water Temp Dewpoint Dewpoint Depression Visibility Wind Speed Wind Dir Waves Ship Positions

Rhonda Lamulle

Owner: Florida Marine Transporters, Inc., Mandeville, LA. More information available from US FCC via Universal Licensing System and Coast Guard Vessel Documentation Center.

Last reported at 2015-Jan-27 03:31 UTC. Time now 2015-Jan-30 12:27 UTC.
Position N 30°23' W 087°00'.

Length 27 m; draft 3 m.

Type: Towing. MMSI: 367087160.

Date/timePositionNaut miles runAvg speedWind from/ knotsBaromVisibWave heightAir tempDewpointWater temp
2015-Jan-27 03:31N 30°23' W 087°00'6 5.8
2015-Jan-27 02:33N 30°24' W 086°54'5 5.4
2015-Jan-27 01:33N 30°24' W 086°48'5 4.7
2015-Jan-27 00:33N 30°24' W 086°42'0 0.0
2015-Jan-26 23:33N 30°24' W 086°42'0 0.0
2015-Jan-26 22:33N 30°24' W 086°42'0 0.0
2015-Jan-26 21:30N 30°24' W 086°42'0 0.0
2015-Jan-26 20:33N 30°24' W 086°42'0 0.0
2015-Jan-26 19:33N 30°24' W 086°42'0 0.0
2015-Jan-26 18:33N 30°24' W 086°42'0 0.0
2015-Jan-26 17:33N 30°24' W 086°42'0 0.0
2015-Jan-26 16:33N 30°24' W 086°42'0 0.0
2015-Jan-26 15:33N 30°24' W 086°42'0 0.0
2015-Jan-26 14:33N 30°24' W 086°42'0 0.0
2015-Jan-26 13:33N 30°24' W 086°42'0 0.0
2015-Jan-26 12:33N 30°24' W 086°42'0 0.0
2015-Jan-26 11:33N 30°24' W 086°42'0 0.0
2015-Jan-26 10:32N 30°24' W 086°42'0 0.0
2015-Jan-26 09:31N 30°24' W 086°42'0 0.0
2015-Jan-26 08:33N 30°24' W 086°42'0 0.0
2015-Jan-26 07:33N 30°24' W 086°42'0 0.0
2015-Jan-26 06:33N 30°24' W 086°42'0 0.0
2015-Jan-26 05:33N 30°24' W 086°42'0 0.0
2015-Jan-26 04:33N 30°24' W 086°42'0 0.0
2015-Jan-26 03:33N 30°24' W 086°42'0 0.0
2015-Jan-26 02:32N 30°24' W 086°42'0 0.0
2015-Jan-26 01:33N 30°24' W 086°42'0 0.0
2015-Jan-26 00:33N 30°24' W 086°42'0 0.0
2015-Jan-25 23:33N 30°24' W 086°42'0 0.0
2015-Jan-25 22:33N 30°24' W 086°42'0 0.0
2015-Jan-25 21:33N 30°24' W 086°42'0 0.0
2015-Jan-25 20:33N 30°24' W 086°42'0 0.0
2015-Jan-25 19:33N 30°24' W 086°42'0 0.0
2015-Jan-25 18:33N 30°24' W 086°42'0 0.1
2015-Jan-25 17:33N 30°24' W 086°42'0 0.1
2015-Jan-25 16:33N 30°25' W 086°42'0 0.0
2015-Jan-25 15:33N 30°25' W 086°42'0 0.0
2015-Jan-25 14:33N 30°25' W 086°42'0 0.0
2015-Jan-25 13:33N 30°25' W 086°42'0 0.0
2015-Jan-25 12:33N 30°25' W 086°42'0 0.0
2015-Jan-25 11:33N 30°25' W 086°42'0 0.0
2015-Jan-25 10:33N 30°25' W 086°42'0 0.0
2015-Jan-25 09:33N 30°25' W 086°42'0 0.0
2015-Jan-25 08:33N 30°25' W 086°42'0 0.0
2015-Jan-25 07:33N 30°25' W 086°42'0 0.0
2015-Jan-25 06:33N 30°25' W 086°42'0 0.0
2015-Jan-25 05:33N 30°25' W 086°42'0 0.0
2015-Jan-25 04:33N 30°25' W 086°42'0 0.0
2015-Jan-25 03:33N 30°25' W 086°42'0 0.0
2015-Jan-25 02:33N 30°25' W 086°42'0 0.0
2015-Jan-25 01:28N 30°25' W 086°42'0 0.0
2015-Jan-25 00:32N 30°25' W 086°42'0 0.0
2015-Jan-24 23:32N 30°25' W 086°42'0 0.0
2015-Jan-24 22:33N 30°25' W 086°42'0 0.0
2015-Jan-24 21:33N 30°25' W 086°42'0 0.0
2015-Jan-24 20:32N 30°25' W 086°42'0 0.0
2015-Jan-24 19:33N 30°25' W 086°42'0 0.0
2015-Jan-24 18:33N 30°25' W 086°42'0 0.1
2015-Jan-24 17:33N 30°24' W 086°42'2 2.1
2015-Jan-24 16:33N 30°24' W 086°40'5 4.7
2015-Jan-24 15:33N 30°24' W 086°34'4 4.5
2015-Jan-24 14:33N 30°26' W 086°30'3 3.1
2015-Jan-24 13:33N 30°29' W 086°29'0 0.4
2015-Jan-24 12:34N 30°29' W 086°29'0 0.0
2015-Jan-24 11:33N 30°29' W 086°29'0 0.0
2015-Jan-24 10:34N 30°29' W 086°29'0 0.0
2015-Jan-24 09:34N 30°29' W 086°29'0 0.0
2015-Jan-24 08:15N 30°29' W 086°29'0 0.0
2015-Jan-24 07:34N 30°29' W 086°29'0 0.0
2015-Jan-24 06:34N 30°29' W 086°29'0 0.0
2015-Jan-24 05:34N 30°29' W 086°29'0 0.0
2015-Jan-24 04:34N 30°29' W 086°29'0 0.0
2015-Jan-24 03:34N 30°29' W 086°29'0 0.0
2015-Jan-24 02:34N 30°29' W 086°29'0 0.0
2015-Jan-24 01:33N 30°29' W 086°29'0 0.0
2015-Jan-24 00:34N 30°29' W 086°29'0 0.0
2015-Jan-23 23:34N 30°29' W 086°29'0 0.0
2015-Jan-23 22:34N 30°29' W 086°29'0 0.0
2015-Jan-23 21:34N 30°29' W 086°29'0 0.0
2015-Jan-23 20:34N 30°29' W 086°29'0 0.0
2015-Jan-23 19:34N 30°29' W 086°29'0 0.0
2015-Jan-23 18:34N 30°29' W 086°29'0 0.0
2015-Jan-23 17:34N 30°29' W 086°29'0 0.0
2015-Jan-23 16:34N 30°29' W 086°29'0 0.0
2015-Jan-23 15:34N 30°29' W 086°29'0 0.0
2015-Jan-23 14:34N 30°29' W 086°29'0 0.0
2015-Jan-23 13:34N 30°29' W 086°29'0 0.0
2015-Jan-23 12:34N 30°29' W 086°29'0 0.0
2015-Jan-23 11:34N 30°29' W 086°29'0 0.0
2015-Jan-23 10:34N 30°29' W 086°29'0 0.0
2015-Jan-23 09:34N 30°29' W 086°29'2 1.4
2015-Jan-23 08:15N 30°27' W 086°28'4 5.7
2015-Jan-23 07:34N 30°26' W 086°24'6 5.9
2015-Jan-23 06:33N 30°26' W 086°17'6 0.1
2015-Jan-21 14:15N 30°24' W 086°11'0 0.2
2015-Jan-21 13:33N 30°24' W 086°11'4 3.6
2015-Jan-21 12:31N 30°26' W 086°15'5 5.3
2015-Jan-21 11:34N 30°26' W 086°20'5 5.4
2015-Jan-21 10:34N 30°26' W 086°27'5 5.3
2015-Jan-21 09:33N 30°24' W 086°33'6 5.2
2015-Jan-21 08:26N 30°24' W 086°39'5 5.1
2015-Jan-21 07:32N 30°24' W 086°45'5 5.3
2015-Jan-21 06:33N 30°24' W 086°51'6 5.6
2015-Jan-21 05:33N 30°23' W 086°57'  
Track history (hours):
 
Tides and Currents Weather Stations Pressure Air Temp Water Temp Dewpoint Dewpoint Depression Visibility Wind Speed Wind Dir Waves Ship Positions

Rhonda Lamulle

Owner: Florida Marine Transporters, Inc., Mandeville, LA. More information available from US FCC via Universal Licensing System and Coast Guard Vessel Documentation Center.

Last reported at 2015-Jan-27 03:31 UTC. Time now 2015-Jan-30 12:27 UTC.
Position N 30°23' W 087°00'.

Length 27 m; draft 3 m.

Type: Towing. MMSI: 367087160.

Date/timePositionNaut miles runAvg speedWind from/ knotsBaromVisibWave heightAir tempDewpointWater temp
2015-Jan-27 03:31N 30°23' W 087°00'6 5.8
2015-Jan-27 02:33N 30°24' W 086°54'5 5.4
2015-Jan-27 01:33N 30°24' W 086°48'5 4.7
2015-Jan-27 00:33N 30°24' W 086°42'0 0.0
2015-Jan-26 23:33N 30°24' W 086°42'0 0.0
2015-Jan-26 22:33N 30°24' W 086°42'0 0.0
2015-Jan-26 21:30N 30°24' W 086°42'0 0.0
2015-Jan-26 20:33N 30°24' W 086°42'0 0.0
2015-Jan-26 19:33N 30°24' W 086°42'0 0.0
2015-Jan-26 18:33N 30°24' W 086°42'0 0.0
2015-Jan-26 17:33N 30°24' W 086°42'0 0.0
2015-Jan-26 16:33N 30°24' W 086°42'0 0.0
2015-Jan-26 15:33N 30°24' W 086°42'0 0.0
2015-Jan-26 14:33N 30°24' W 086°42'0 0.0
2015-Jan-26 13:33N 30°24' W 086°42'0 0.0
2015-Jan-26 12:33N 30°24' W 086°42'0 0.0
2015-Jan-26 11:33N 30°24' W 086°42'0 0.0
2015-Jan-26 10:32N 30°24' W 086°42'0 0.0
2015-Jan-26 09:31N 30°24' W 086°42'0 0.0
2015-Jan-26 08:33N 30°24' W 086°42'0 0.0
2015-Jan-26 07:33N 30°24' W 086°42'0 0.0
2015-Jan-26 06:33N 30°24' W 086°42'0 0.0
2015-Jan-26 05:33N 30°24' W 086°42'0 0.0
2015-Jan-26 04:33N 30°24' W 086°42'0 0.0
2015-Jan-26 03:33N 30°24' W 086°42'0 0.0
2015-Jan-26 02:32N 30°24' W 086°42'0 0.0
2015-Jan-26 01:33N 30°24' W 086°42'0 0.0
2015-Jan-26 00:33N 30°24' W 086°42'0 0.0
2015-Jan-25 23:33N 30°24' W 086°42'0 0.0
2015-Jan-25 22:33N 30°24' W 086°42'0 0.0
2015-Jan-25 21:33N 30°24' W 086°42'0 0.0
2015-Jan-25 20:33N 30°24' W 086°42'0 0.0
2015-Jan-25 19:33N 30°24' W 086°42'0 0.0
2015-Jan-25 18:33N 30°24' W 086°42'0 0.1
2015-Jan-25 17:33N 30°24' W 086°42'0 0.1
2015-Jan-25 16:33N 30°25' W 086°42'0 0.0
2015-Jan-25 15:33N 30°25' W 086°42'0 0.0
2015-Jan-25 14:33N 30°25' W 086°42'0 0.0
2015-Jan-25 13:33N 30°25' W 086°42'0 0.0
2015-Jan-25 12:33N 30°25' W 086°42'0 0.0
2015-Jan-25 11:33N 30°25' W 086°42'0 0.0
2015-Jan-25 10:33N 30°25' W 086°42'0 0.0
2015-Jan-25 09:33N 30°25' W 086°42'0 0.0
2015-Jan-25 08:33N 30°25' W 086°42'0 0.0
2015-Jan-25 07:33N 30°25' W 086°42'0 0.0
2015-Jan-25 06:33N 30°25' W 086°42'0 0.0
2015-Jan-25 05:33N 30°25' W 086°42'0 0.0
2015-Jan-25 04:33N 30°25' W 086°42'0 0.0
2015-Jan-25 03:33N 30°25' W 086°42'0 0.0
2015-Jan-25 02:33N 30°25' W 086°42'0 0.0
2015-Jan-25 01:28N 30°25' W 086°42'0 0.0
2015-Jan-25 00:32N 30°25' W 086°42'0 0.0
2015-Jan-24 23:32N 30°25' W 086°42'0 0.0
2015-Jan-24 22:33N 30°25' W 086°42'0 0.0
2015-Jan-24 21:33N 30°25' W 086°42'0 0.0
2015-Jan-24 20:32N 30°25' W 086°42'0 0.0
2015-Jan-24 19:33N 30°25' W 086°42'0 0.0
2015-Jan-24 18:33N 30°25' W 086°42'0 0.1
2015-Jan-24 17:33N 30°24' W 086°42'2 2.1
2015-Jan-24 16:33N 30°24' W 086°40'5 4.7
2015-Jan-24 15:33N 30°24' W 086°34'4 4.5
2015-Jan-24 14:33N 30°26' W 086°30'3 3.1
2015-Jan-24 13:33N 30°29' W 086°29'0 0.4
2015-Jan-24 12:34N 30°29' W 086°29'0 0.0
2015-Jan-24 11:33N 30°29' W 086°29'0 0.0
2015-Jan-24 10:34N 30°29' W 086°29'0 0.0
2015-Jan-24 09:34N 30°29' W 086°29'0 0.0
2015-Jan-24 08:15N 30°29' W 086°29'0 0.0
2015-Jan-24 07:34N 30°29' W 086°29'0 0.0
2015-Jan-24 06:34N 30°29' W 086°29'0 0.0
2015-Jan-24 05:34N 30°29' W 086°29'0 0.0
2015-Jan-24 04:34N 30°29' W 086°29'0 0.0
2015-Jan-24 03:34N 30°29' W 086°29'0 0.0
2015-Jan-24 02:34N 30°29' W 086°29'0 0.0
2015-Jan-24 01:33N 30°29' W 086°29'0 0.0
2015-Jan-24 00:34N 30°29' W 086°29'0 0.0
2015-Jan-23 23:34N 30°29' W 086°29'0 0.0
2015-Jan-23 22:34N 30°29' W 086°29'0 0.0
2015-Jan-23 21:34N 30°29' W 086°29'0 0.0
2015-Jan-23 20:34N 30°29' W 086°29'0 0.0
2015-Jan-23 19:34N 30°29' W 086°29'0 0.0
2015-Jan-23 18:34N 30°29' W 086°29'0 0.0
2015-Jan-23 17:34N 30°29' W 086°29'0 0.0
2015-Jan-23 16:34N 30°29' W 086°29'0 0.0
2015-Jan-23 15:34N 30°29' W 086°29'0 0.0
2015-Jan-23 14:34N 30°29' W 086°29'0 0.0
2015-Jan-23 13:34N 30°29' W 086°29'0 0.0
2015-Jan-23 12:34N 30°29' W 086°29'0 0.0
2015-Jan-23 11:34N 30°29' W 086°29'0 0.0
2015-Jan-23 10:34N 30°29' W 086°29'0 0.0
2015-Jan-23 09:34N 30°29' W 086°29'2 1.4
2015-Jan-23 08:15N 30°27' W 086°28'4 5.7
2015-Jan-23 07:34N 30°26' W 086°24'6 5.9
2015-Jan-23 06:33N 30°26' W 086°17'6 0.1
2015-Jan-21 14:15N 30°24' W 086°11'0 0.2
2015-Jan-21 13:33N 30°24' W 086°11'4 3.6
2015-Jan-21 12:31N 30°26' W 086°15'5 5.3
2015-Jan-21 11:34N 30°26' W 086°20'5 5.4
2015-Jan-21 10:34N 30°26' W 086°27'5 5.3
2015-Jan-21 09:33N 30°24' W 086°33'6 5.2
2015-Jan-21 08:26N 30°24' W 086°39'5 5.1
2015-Jan-21 07:32N 30°24' W 086°45'5 5.3
2015-Jan-21 06:33N 30°24' W 086°51'6 5.6
2015-Jan-21 05:33N 30°23' W 086°57'  

Dump ship's entire track history